Courage — NA31 — position and weather

sailwx.info

Track history (hours):
 
Tides and Currents Weather Stations Pressure Air Temp Water Temp Dewpoint Dewpoint Depression Visibility Wind Speed Wind Dir Waves Ship Positions

Courage

Last reported at 2017-Oct-26 22:37 UTC. Time now 2017-Dec-17 10:07 UTC.
Position N 38°59' W 076°29'.
Warning: this ship's position is 51 days out of date.

Length 14 m.

Type: Sailing vessel. MMSI: 369970072.

Date/timePositionNaut miles runAvg speedWind from/ knotsBaromVisibWave heightAir tempDewpointWater temp
2017-Oct-26 22:37N 38°59' W 076°29'0 0.5
2017-Oct-26 22:30N 38°59' W 076°29'1 1.3
2017-Oct-26 22:00N 38°59' W 076°28'0 0.5
2017-Oct-26 21:30N 38°59' W 076°28'1 1.1
2017-Oct-26 21:00N 38°59' W 076°28'0 0.6
2017-Oct-26 20:31N 38°59' W 076°28'1 1.2
2017-Oct-26 19:58N 38°59' W 076°29'  
2017-Oct-22 18:19N 38°59' W 076°29'1 3.2
2017-Oct-22 18:00N 38°58' W 076°28'3 5.6
2017-Oct-22 17:30N 38°56' W 076°26'0 0.4
2017-Oct-22 17:00N 38°56' W 076°26'0 0.7
2017-Oct-22 16:30N 38°55' W 076°26'0 0.5
2017-Oct-22 16:00N 38°55' W 076°26'1 1.5
2017-Oct-22 15:30N 38°56' W 076°26'0 0.2
2017-Oct-22 15:00N 38°56' W 076°26'0 0.5
2017-Oct-22 14:30N 38°56' W 076°26'0 0.2
2017-Oct-22 14:00N 38°56' W 076°26'3 6.3
2017-Oct-22 13:30N 38°59' W 076°28'1 0.0
2017-Oct-21 18:04N 38°59' W 076°29'0 0.5
2017-Oct-21 18:01N 38°59' W 076°29'3 5.5
2017-Oct-21 17:30N 38°57' W 076°26'1 2.1
2017-Oct-21 17:00N 38°56' W 076°26'1 1.6
2017-Oct-21 16:29N 38°55' W 076°26'0 0.2
2017-Oct-21 16:00N 38°55' W 076°26'0 0.7
2017-Oct-21 15:31N 38°55' W 076°26'1 1.0
2017-Oct-21 15:00N 38°56' W 076°25'2 3.0
2017-Oct-21 14:31N 38°57' W 076°26'3 0.2
2017-Oct-20 21:59N 38°59' W 076°29'1 3.0
2017-Oct-20 21:30N 38°58' W 076°27'1 2.9
2017-Oct-20 21:00N 38°58' W 076°25'1 1.2
2017-Oct-20 20:30N 38°58' W 076°25'1 2.4
2017-Oct-20 20:00N 38°58' W 076°26'3 5.1
2017-Oct-20 19:30N 38°59' W 076°29'0 0.0
2017-Oct-19 22:30N 38°59' W 076°29'2 3.7
2017-Oct-19 22:00N 38°58' W 076°27'3 4.7
2017-Oct-19 21:28N 38°55' W 076°26'2 4.3
2017-Oct-19 21:00N 38°57' W 076°26'3 5.4
2017-Oct-19 20:30N 38°59' W 076°29'0 0.0
2017-Oct-19 15:50N 38°59' W 076°29'0 0.0
2017-Oct-17 18:27N 38°59' W 076°29'1 0.9
2017-Oct-17 17:46N 38°59' W 076°28'1 2.3
2017-Oct-17 17:30N 38°59' W 076°29'  
Track history (hours):
 
Tides and Currents Weather Stations Pressure Air Temp Water Temp Dewpoint Dewpoint Depression Visibility Wind Speed Wind Dir Waves Ship Positions

Courage

Last reported at 2017-Oct-26 22:37 UTC. Time now 2017-Dec-17 10:07 UTC.
Position N 38°59' W 076°29'.
Warning: this ship's position is 51 days out of date.

Length 14 m.

Type: Sailing vessel. MMSI: 369970072.

Date/timePositionNaut miles runAvg speedWind from/ knotsBaromVisibWave heightAir tempDewpointWater temp
2017-Oct-26 22:37N 38°59' W 076°29'0 0.5
2017-Oct-26 22:30N 38°59' W 076°29'1 1.3
2017-Oct-26 22:00N 38°59' W 076°28'0 0.5
2017-Oct-26 21:30N 38°59' W 076°28'1 1.1
2017-Oct-26 21:00N 38°59' W 076°28'0 0.6
2017-Oct-26 20:31N 38°59' W 076°28'1 1.2
2017-Oct-26 19:58N 38°59' W 076°29'  
2017-Oct-22 18:19N 38°59' W 076°29'1 3.2
2017-Oct-22 18:00N 38°58' W 076°28'3 5.6
2017-Oct-22 17:30N 38°56' W 076°26'0 0.4
2017-Oct-22 17:00N 38°56' W 076°26'0 0.7
2017-Oct-22 16:30N 38°55' W 076°26'0 0.5
2017-Oct-22 16:00N 38°55' W 076°26'1 1.5
2017-Oct-22 15:30N 38°56' W 076°26'0 0.2
2017-Oct-22 15:00N 38°56' W 076°26'0 0.5
2017-Oct-22 14:30N 38°56' W 076°26'0 0.2
2017-Oct-22 14:00N 38°56' W 076°26'3 6.3
2017-Oct-22 13:30N 38°59' W 076°28'1 0.0
2017-Oct-21 18:04N 38°59' W 076°29'0 0.5
2017-Oct-21 18:01N 38°59' W 076°29'3 5.5
2017-Oct-21 17:30N 38°57' W 076°26'1 2.1
2017-Oct-21 17:00N 38°56' W 076°26'1 1.6
2017-Oct-21 16:29N 38°55' W 076°26'0 0.2
2017-Oct-21 16:00N 38°55' W 076°26'0 0.7
2017-Oct-21 15:31N 38°55' W 076°26'1 1.0
2017-Oct-21 15:00N 38°56' W 076°25'2 3.0
2017-Oct-21 14:31N 38°57' W 076°26'3 0.2
2017-Oct-20 21:59N 38°59' W 076°29'1 3.0
2017-Oct-20 21:30N 38°58' W 076°27'1 2.9
2017-Oct-20 21:00N 38°58' W 076°25'1 1.2
2017-Oct-20 20:30N 38°58' W 076°25'1 2.4
2017-Oct-20 20:00N 38°58' W 076°26'3 5.1
2017-Oct-20 19:30N 38°59' W 076°29'0 0.0
2017-Oct-19 22:30N 38°59' W 076°29'2 3.7
2017-Oct-19 22:00N 38°58' W 076°27'3 4.7
2017-Oct-19 21:28N 38°55' W 076°26'2 4.3
2017-Oct-19 21:00N 38°57' W 076°26'3 5.4
2017-Oct-19 20:30N 38°59' W 076°29'0 0.0
2017-Oct-19 15:50N 38°59' W 076°29'0 0.0
2017-Oct-17 18:27N 38°59' W 076°29'1 0.9
2017-Oct-17 17:46N 38°59' W 076°28'1 2.3
2017-Oct-17 17:30N 38°59' W 076°29'  

Dump ship's entire track history